Historyczne dane pomiarowe

Dodano dane terminowe – wersja testowa.

Dane z okresu 1951-2019

Wersja bazy: 1.34 [2019-03-16, lista zmian], aktualizacja planowana na 2019-04-15

Dane meteo z obszaru Polski uzyskane na podstawie danych udostępnionych przez Instytut Meteorologii i Gospodarki Wodnej – Państwowy Instytut Badawczy.

 

Wybierz Datę:    

       

TemperaturaWilgotnośćWiatrCiśnienieOpadyŚniegCzas trwania zjawisk
 Stacja t tx tn tng RH VA  wxwx mslp ppp RRR   cm mm wxwxwxwxwxwxwx
1971-05-15 14.6 20.3 8.8- 62.0- 3.7 6.0---- 0.3------------
1971-05-16 16.3 23.8 12.9- 77.8- 5.3 2.7---- 7.4------------
1971-05-17 19.5 27.6 12.3- 69.3- 3.0 2.3---- 0.0------------
1971-05-18 22.4 29.4 16.1- 56.0- 1.3 4.7---- 0.0------------
1971-05-19 16.2 24.0 13.2- 78.0- 6.3 1.0---- 0.0------------
1971-05-20 13.1 20.2 6.1- 61.5- 2.0 2.0---- 5.7------------
1971-05-21 10.1 14.6 8.3- 86.8- 5.7 1.3---- 4.5------------
1971-05-22 7.7 12.0 4.9- 86.3- 4.3 6.3---- 0.0------------
1971-05-23 7.9 10.9 5.4- 76.5- 6.7 6.7---- 0.0------------
1971-05-24 9.1 12.8 6.8- 76.0- 8.0 7.7---- 13.0------------
1971-05-25 13.7 19.7 8.9- 86.8- 7.7 2.7---- 23.4------------
1971-05-26 15.5 21.2 11.6- 88.0- 6.3 3.0---- 11.3------------
1971-05-27 16.0 23.0 11.0- 82.5- 5.0 1.7---- 0.3------------
1971-05-28 19.6 25.4 13.5- 71.8- 1.0 6.3---- 0.0------------
1971-05-29 18.5 23.3 14.5- 68.5- 4.0 6.0---- 9.8------------
1971-05-30 16.6 21.2 13.0- 80.8- 4.3 2.0---- 1.8------------
1971-05-31 18.8 23.2 12.2- 67.8- 4.3 2.0---- 0.0------------
1971-06-01 20.0 25.3 12.4- 56.3- 3.3 3.0---- 0.0------------
1971-06-02 20.9 25.7 14.8- 55.8- 2.3 2.0---- 0.0------------
1971-06-03 18.9 25.3 10.7- 66.3- 2.7 1.7---- 0.0------------
1971-06-04 19.5 24.8 12.0- 55.0- 3.0 2.0---- 0.0------------
1971-06-05 15.4 19.3 11.0- 88.0- 6.3 2.7---- 0.4------------
1971-06-06 15.5 18.9 13.0- 81.8- 6.3 3.7---- 0.0------------
1971-06-07 16.7 22.6 9.4- 70.0- 2.3 4.0---- 0.0------------
1971-06-08 15.7 23.8 9.5- 68.5- 4.3 4.0---- 0.0------------
1971-06-09 13.7 19.7 7.0- 78.8- 5.0 1.0---- 0.0------------
1971-06-10 13.6 17.2 10.0- 83.8- 7.7 5.7---- 1.3------------
1971-06-11 12.5 14.1 11.6- 95.8- 8.0 1.7---- 0.1------------
1971-06-12 10.9 13.1 9.4- 92.0- 8.0 3.7---- 0.5------------
1971-06-13 9.0 10.2 8.0- 94.5- 8.0 4.0---- 1.7------------
1182.5 ms

 

Źródłem pochodzenia danych jest Instytut Meteorologii i Gospodarki Wodnej – Państwowy Instytut Badawczy. Dane Instytutu Meteorologii i Gospodarki Wodnej – Państwowego Instytutu Badawczego zostały przetworzone.

Dane źródłowe można odnaleźć na stronie https://dane.imgw.pl